sensor_id;sensor_type;location;lat;lon;timestamp;temperature;humidity
42099;DHT22;27758;55.900;8.516;2023-07-13T00:00:42;14.10;99.90
42099;DHT22;27758;55.900;8.516;2023-07-13T00:03:08;14.10;99.90
42099;DHT22;27758;55.900;8.516;2023-07-13T00:05:34;14.20;99.90
42099;DHT22;27758;55.900;8.516;2023-07-13T00:07:59;14.20;99.90
42099;DHT22;27758;55.900;8.516;2023-07-13T00:10:25;14.20;99.90
42099;DHT22;27758;55.900;8.516;2023-07-13T00:12:52;14.20;99.90
42099;DHT22;27758;55.900;8.516;2023-07-13T00:15:23;14.10;99.90
42099;DHT22;27758;55.900;8.516;2023-07-13T00:17:53;14.20;99.90
42099;DHT22;27758;55.900;8.516;2023-07-13T00:20:24;14.20;99.90
42099;DHT22;27758;55.900;8.516;2023-07-13T00:22:51;14.30;99.90
42099;DHT22;27758;55.900;8.516;2023-07-13T00:25:20;14.30;99.90
42099;DHT22;27758;55.900;8.516;2023-07-13T00:27:47;14.40;99.90
42099;DHT22;27758;55.900;8.516;2023-07-13T00:30:17;14.50;99.90
42099;DHT22;27758;55.900;8.516;2023-07-13T00:32:42;14.50;99.90
42099;DHT22;27758;55.900;8.516;2023-07-13T00:35:08;14.50;99.90
42099;DHT22;27758;55.900;8.516;2023-07-13T00:37:34;14.50;99.90
42099;DHT22;27758;55.900;8.516;2023-07-13T00:40:02;14.50;99.90
42099;DHT22;27758;55.900;8.516;2023-07-13T00:42:29;14.60;99.90
42099;DHT22;27758;55.900;8.516;2023-07-13T00:47:46;14.60;99.90
42099;DHT22;27758;55.900;8.516;2023-07-13T00:50:15;14.60;99.90
42099;DHT22;27758;55.900;8.516;2023-07-13T00:52:44;14.60;99.90
42099;DHT22;27758;55.900;8.516;2023-07-13T00:55:12;14.60;99.90
42099;DHT22;27758;55.900;8.516;2023-07-13T00:57:38;14.60;99.90
42099;DHT22;27758;55.900;8.516;2023-07-13T01:00:06;14.60;99.90
42099;DHT22;27758;55.900;8.516;2023-07-13T01:02:44;14.60;99.90
42099;DHT22;27758;55.900;8.516;2023-07-13T01:05:16;14.60;99.90
42099;DHT22;27758;55.900;8.516;2023-07-13T01:07:43;14.60;99.90
42099;DHT22;27758;55.900;8.516;2023-07-13T01:10:11;14.60;99.90
42099;DHT22;27758;55.900;8.516;2023-07-13T01:12:37;14.70;99.90
42099;DHT22;27758;55.900;8.516;2023-07-13T01:15:04;14.70;99.90
42099;DHT22;27758;55.900;8.516;2023-07-13T01:17:33;14.70;99.90
42099;DHT22;27758;55.900;8.516;2023-07-13T01:19:59;14.80;99.90
42099;DHT22;27758;55.900;8.516;2023-07-13T01:22:26;14.80;99.90
42099;DHT22;27758;55.900;8.516;2023-07-13T01:24:53;14.80;99.90
42099;DHT22;27758;55.900;8.516;2023-07-13T01:27:25;14.80;99.90
42099;DHT22;27758;55.900;8.516;2023-07-13T01:29:52;14.80;99.90
42099;DHT22;27758;55.900;8.516;2023-07-13T01:32:21;14.90;99.90
42099;DHT22;27758;55.900;8.516;2023-07-13T01:34:50;14.90;99.90
42099;DHT22;27758;55.900;8.516;2023-07-13T01:37:16;15.00;99.90
42099;DHT22;27758;55.900;8.516;2023-07-13T01:39:42;14.90;99.90
42099;DHT22;27758;55.900;8.516;2023-07-13T01:42:08;14.90;99.90
42099;DHT22;27758;55.900;8.516;2023-07-13T01:44:34;14.90;99.90
42099;DHT22;27758;55.900;8.516;2023-07-13T01:47:00;15.00;99.90
42099;DHT22;27758;55.900;8.516;2023-07-13T01:49:26;15.00;99.90
42099;DHT22;27758;55.900;8.516;2023-07-13T01:51:52;15.00;99.90
42099;DHT22;27758;55.900;8.516;2023-07-13T01:54:18;15.00;99.90
42099;DHT22;27758;55.900;8.516;2023-07-13T01:56:43;15.10;99.90
42099;DHT22;27758;55.900;8.516;2023-07-13T01:59:09;15.10;99.90
42099;DHT22;27758;55.900;8.516;2023-07-13T02:01:35;15.10;99.90
42099;DHT22;27758;55.900;8.516;2023-07-13T02:04:01;15.00;99.90
42099;DHT22;27758;55.900;8.516;2023-07-13T02:06:26;14.80;99.90
42099;DHT22;27758;55.900;8.516;2023-07-13T02:08:52;14.80;99.90
42099;DHT22;27758;55.900;8.516;2023-07-13T02:11:18;14.70;99.90
42099;DHT22;27758;55.900;8.516;2023-07-13T02:13:43;14.70;99.90
42099;DHT22;27758;55.900;8.516;2023-07-13T02:16:09;14.70;99.90
42099;DHT22;27758;55.900;8.516;2023-07-13T02:18:35;14.70;99.90
42099;DHT22;27758;55.900;8.516;2023-07-13T02:21:01;14.60;99.90
42099;DHT22;27758;55.900;8.516;2023-07-13T02:23:28;14.70;99.90
42099;DHT22;27758;55.900;8.516;2023-07-13T02:25:57;14.60;99.90
42099;DHT22;27758;55.900;8.516;2023-07-13T02:28:24;14.60;99.90
42099;DHT22;27758;55.900;8.516;2023-07-13T02:30:50;14.60;99.90
42099;DHT22;27758;55.900;8.516;2023-07-13T02:33:16;14.70;99.90
42099;DHT22;27758;55.900;8.516;2023-07-13T02:35:41;14.70;99.90
42099;DHT22;27758;55.900;8.516;2023-07-13T02:38:07;14.70;99.90
42099;DHT22;27758;55.900;8.516;2023-07-13T02:40:34;14.70;99.90
42099;DHT22;27758;55.900;8.516;2023-07-13T02:43:01;14.80;99.90
42099;DHT22;27758;55.900;8.516;2023-07-13T02:45:27;14.80;99.90
42099;DHT22;27758;55.900;8.516;2023-07-13T02:47:53;14.80;99.90
42099;DHT22;27758;55.900;8.516;2023-07-13T02:50:19;14.80;99.90
42099;DHT22;27758;55.900;8.516;2023-07-13T02:52:45;14.80;99.90
42099;DHT22;27758;55.900;8.516;2023-07-13T02:55:10;14.80;99.90
42099;DHT22;27758;55.900;8.516;2023-07-13T02:57:36;14.80;99.90
42099;DHT22;27758;55.900;8.516;2023-07-13T03:00:04;14.70;99.90
42099;DHT22;27758;55.900;8.516;2023-07-13T03:02:36;14.70;99.90
42099;DHT22;27758;55.900;8.516;2023-07-13T03:05:04;14.70;99.90
42099;DHT22;27758;55.900;8.516;2023-07-13T03:07:30;14.70;99.90
42099;DHT22;27758;55.900;8.516;2023-07-13T03:09:57;14.70;99.90
42099;DHT22;27758;55.900;8.516;2023-07-13T03:12:24;14.70;99.90
42099;DHT22;27758;55.900;8.516;2023-07-13T03:14:49;14.70;99.90
42099;DHT22;27758;55.900;8.516;2023-07-13T03:17:15;14.70;99.90
42099;DHT22;27758;55.900;8.516;2023-07-13T03:19:41;14.70;99.90
42099;DHT22;27758;55.900;8.516;2023-07-13T03:22:08;14.70;99.90
42099;DHT22;27758;55.900;8.516;2023-07-13T03:24:34;14.70;99.90
42099;DHT22;27758;55.900;8.516;2023-07-13T03:27:03;14.70;99.90
42099;DHT22;27758;55.900;8.516;2023-07-13T03:29:28;14.70;99.90
42099;DHT22;27758;55.900;8.516;2023-07-13T03:31:54;14.70;99.90
42099;DHT22;27758;55.900;8.516;2023-07-13T03:34:20;14.70;99.90
42099;DHT22;27758;55.900;8.516;2023-07-13T03:36:45;14.70;99.90
42099;DHT22;27758;55.900;8.516;2023-07-13T03:39:11;14.70;99.90
42099;DHT22;27758;55.900;8.516;2023-07-13T03:41:37;14.70;99.90
42099;DHT22;27758;55.900;8.516;2023-07-13T03:44:03;14.70;99.90
42099;DHT22;27758;55.900;8.516;2023-07-13T03:46:29;14.70;99.90
42099;DHT22;27758;55.900;8.516;2023-07-13T03:48:55;14.80;99.90
42099;DHT22;27758;55.900;8.516;2023-07-13T03:51:21;14.80;99.90
42099;DHT22;27758;55.900;8.516;2023-07-13T03:53:47;14.80;99.90
42099;DHT22;27758;55.900;8.516;2023-07-13T03:56:17;14.90;99.90
42099;DHT22;27758;55.900;8.516;2023-07-13T03:58:45;14.90;99.90
42099;DHT22;27758;55.900;8.516;2023-07-13T04:01:11;15.00;99.90
42099;DHT22;27758;55.900;8.516;2023-07-13T04:03:37;15.00;99.90
42099;DHT22;27758;55.900;8.516;2023-07-13T04:06:05;15.00;99.90
42099;DHT22;27758;55.900;8.516;2023-07-13T04:08:34;15.10;99.90
42099;DHT22;27758;55.900;8.516;2023-07-13T04:11:00;15.10;99.90
42099;DHT22;27758;55.900;8.516;2023-07-13T04:13:26;15.10;99.90
42099;DHT22;27758;55.900;8.516;2023-07-13T04:15:52;15.10;99.90
42099;DHT22;27758;55.900;8.516;2023-07-13T04:18:18;15.10;99.90
42099;DHT22;27758;55.900;8.516;2023-07-13T04:20:49;15.20;99.90
42099;DHT22;27758;55.900;8.516;2023-07-13T04:23:16;15.20;99.90
42099;DHT22;27758;55.900;8.516;2023-07-13T04:25:49;15.40;99.90
42099;DHT22;27758;55.900;8.516;2023-07-13T04:28:23;15.40;99.90
42099;DHT22;27758;55.900;8.516;2023-07-13T04:30:49;15.50;99.90
42099;DHT22;27758;55.900;8.516;2023-07-13T04:33:15;15.60;99.90
42099;DHT22;27758;55.900;8.516;2023-07-13T04:35:43;15.60;99.90
42099;DHT22;27758;55.900;8.516;2023-07-13T04:38:09;15.60;99.90
42099;DHT22;27758;55.900;8.516;2023-07-13T04:40:37;15.60;99.90
42099;DHT22;27758;55.900;8.516;2023-07-13T04:43:03;15.60;99.90
42099;DHT22;27758;55.900;8.516;2023-07-13T04:45:29;15.60;99.90
42099;DHT22;27758;55.900;8.516;2023-07-13T04:47:56;15.70;99.90
42099;DHT22;27758;55.900;8.516;2023-07-13T04:50:22;15.70;99.90
42099;DHT22;27758;55.900;8.516;2023-07-13T04:52:52;15.70;99.90
42099;DHT22;27758;55.900;8.516;2023-07-13T04:55:18;15.70;99.90
42099;DHT22;27758;55.900;8.516;2023-07-13T04:57:44;15.70;99.90
42099;DHT22;27758;55.900;8.516;2023-07-13T05:00:11;15.70;99.90
42099;DHT22;27758;55.900;8.516;2023-07-13T05:02:38;15.80;99.90
42099;DHT22;27758;55.900;8.516;2023-07-13T05:05:05;15.80;99.90
42099;DHT22;27758;55.900;8.516;2023-07-13T05:07:31;15.90;99.90
42099;DHT22;27758;55.900;8.516;2023-07-13T05:09:59;16.00;99.90
42099;DHT22;27758;55.900;8.516;2023-07-13T05:12:25;16.10;99.90
42099;DHT22;27758;55.900;8.516;2023-07-13T05:14:51;16.30;99.90
42099;DHT22;27758;55.900;8.516;2023-07-13T05:17:17;16.50;99.90
42099;DHT22;27758;55.900;8.516;2023-07-13T05:19:43;16.70;99.90
42099;DHT22;27758;55.900;8.516;2023-07-13T05:22:08;16.80;99.90
42099;DHT22;27758;55.900;8.516;2023-07-13T05:24:34;17.00;99.90
42099;DHT22;27758;55.900;8.516;2023-07-13T05:27:00;17.20;99.90
42099;DHT22;27758;55.900;8.516;2023-07-13T05:29:25;17.30;99.90
42099;DHT22;27758;55.900;8.516;2023-07-13T05:31:51;17.50;99.90
42099;DHT22;27758;55.900;8.516;2023-07-13T05:34:17;17.50;99.90
42099;DHT22;27758;55.900;8.516;2023-07-13T05:36:43;17.50;99.90
42099;DHT22;27758;55.900;8.516;2023-07-13T05:39:09;17.40;99.90
42099;DHT22;27758;55.900;8.516;2023-07-13T05:41:35;17.40;99.90
42099;DHT22;27758;55.900;8.516;2023-07-13T05:44:01;17.40;99.90
42099;DHT22;27758;55.900;8.516;2023-07-13T05:46:27;17.30;99.90
42099;DHT22;27758;55.900;8.516;2023-07-13T05:48:53;17.30;99.90
42099;DHT22;27758;55.900;8.516;2023-07-13T05:51:19;17.20;99.90
42099;DHT22;27758;55.900;8.516;2023-07-13T05:53:44;17.20;99.90
42099;DHT22;27758;55.900;8.516;2023-07-13T05:56:10;17.20;99.90
42099;DHT22;27758;55.900;8.516;2023-07-13T05:58:36;17.10;99.90
42099;DHT22;27758;55.900;8.516;2023-07-13T06:01:11;17.00;99.90
42099;DHT22;27758;55.900;8.516;2023-07-13T06:03:37;16.90;99.90
42099;DHT22;27758;55.900;8.516;2023-07-13T06:06:04;16.70;99.90
42099;DHT22;27758;55.900;8.516;2023-07-13T06:08:30;16.60;99.90
42099;DHT22;27758;55.900;8.516;2023-07-13T06:11:02;16.60;99.90
42099;DHT22;27758;55.900;8.516;2023-07-13T06:13:28;16.50;99.90
42099;DHT22;27758;55.900;8.516;2023-07-13T06:15:54;16.40;99.90
42099;DHT22;27758;55.900;8.516;2023-07-13T06:18:19;16.30;99.90
42099;DHT22;27758;55.900;8.516;2023-07-13T06:20:45;16.30;99.90
42099;DHT22;27758;55.900;8.516;2023-07-13T06:23:11;16.40;99.90
42099;DHT22;27758;55.900;8.516;2023-07-13T06:25:36;16.50;99.90
42099;DHT22;27758;55.900;8.516;2023-07-13T06:28:02;16.40;99.90
42099;DHT22;27758;55.900;8.516;2023-07-13T06:30:28;16.60;99.90
42099;DHT22;27758;55.900;8.516;2023-07-13T06:32:54;16.80;99.90
42099;DHT22;27758;55.900;8.516;2023-07-13T06:35:20;16.90;99.90
42099;DHT22;27758;55.900;8.516;2023-07-13T06:37:46;16.90;99.90
42099;DHT22;27758;55.900;8.516;2023-07-13T06:40:12;17.00;99.90
42099;DHT22;27758;55.900;8.516;2023-07-13T06:42:38;17.00;99.90
42099;DHT22;27758;55.900;8.516;2023-07-13T06:45:04;17.10;99.90
42099;DHT22;27758;55.900;8.516;2023-07-13T06:47:30;17.20;99.90
42099;DHT22;27758;55.900;8.516;2023-07-13T06:49:57;17.30;99.90
42099;DHT22;27758;55.900;8.516;2023-07-13T06:52:23;17.40;99.90
42099;DHT22;27758;55.900;8.516;2023-07-13T06:54:48;17.70;99.90
42099;DHT22;27758;55.900;8.516;2023-07-13T06:57:14;17.90;99.90
42099;DHT22;27758;55.900;8.516;2023-07-13T06:59:40;18.20;99.90
42099;DHT22;27758;55.900;8.516;2023-07-13T07:02:06;18.60;99.90
42099;DHT22;27758;55.900;8.516;2023-07-13T07:04:31;19.10;99.90
42099;DHT22;27758;55.900;8.516;2023-07-13T07:06:58;19.50;99.90
42099;DHT22;27758;55.900;8.516;2023-07-13T07:09:24;19.70;99.90
42099;DHT22;27758;55.900;8.516;2023-07-13T07:11:49;19.90;99.90
42099;DHT22;27758;55.900;8.516;2023-07-13T07:14:15;19.80;99.90
42099;DHT22;27758;55.900;8.516;2023-07-13T07:16:41;19.70;99.90
42099;DHT22;27758;55.900;8.516;2023-07-13T07:19:06;19.50;99.90
42099;DHT22;27758;55.900;8.516;2023-07-13T07:21:32;19.30;99.90
42099;DHT22;27758;55.900;8.516;2023-07-13T07:23:58;19.30;99.90
42099;DHT22;27758;55.900;8.516;2023-07-13T07:26:25;19.70;99.90
42099;DHT22;27758;55.900;8.516;2023-07-13T07:28:51;20.10;99.90
42099;DHT22;27758;55.900;8.516;2023-07-13T07:31:17;19.90;99.90
42099;DHT22;27758;55.900;8.516;2023-07-13T07:33:42;19.60;99.90
42099;DHT22;27758;55.900;8.516;2023-07-13T07:36:08;19.50;99.90
42099;DHT22;27758;55.900;8.516;2023-07-13T07:38:34;19.50;99.90
42099;DHT22;27758;55.900;8.516;2023-07-13T07:41:03;19.60;99.90
42099;DHT22;27758;55.900;8.516;2023-07-13T07:43:29;19.50;99.90
42099;DHT22;27758;55.900;8.516;2023-07-13T07:45:56;19.30;99.90
42099;DHT22;27758;55.900;8.516;2023-07-13T07:48:22;19.40;99.90
42099;DHT22;27758;55.900;8.516;2023-07-13T07:50:48;19.80;99.90
42099;DHT22;27758;55.900;8.516;2023-07-13T07:53:14;20.30;99.90
42099;DHT22;27758;55.900;8.516;2023-07-13T07:55:39;20.40;99.90
42099;DHT22;27758;55.900;8.516;2023-07-13T07:58:05;20.60;99.90
42099;DHT22;27758;55.900;8.516;2023-07-13T08:00:32;20.50;99.90
42099;DHT22;27758;55.900;8.516;2023-07-13T08:02:58;20.60;99.90
42099;DHT22;27758;55.900;8.516;2023-07-13T08:05:24;20.70;99.90
42099;DHT22;27758;55.900;8.516;2023-07-13T08:07:50;20.90;99.90
42099;DHT22;27758;55.900;8.516;2023-07-13T08:10:17;21.10;99.90
42099;DHT22;27758;55.900;8.516;2023-07-13T08:12:42;21.20;99.90
42099;DHT22;27758;55.900;8.516;2023-07-13T08:15:11;21.20;99.90
42099;DHT22;27758;55.900;8.516;2023-07-13T08:17:37;21.10;99.90
42099;DHT22;27758;55.900;8.516;2023-07-13T08:20:03;21.20;99.90
42099;DHT22;27758;55.900;8.516;2023-07-13T08:22:29;21.10;99.90
42099;DHT22;27758;55.900;8.516;2023-07-13T08:24:57;20.90;99.90
42099;DHT22;27758;55.900;8.516;2023-07-13T08:27:23;20.60;99.90
42099;DHT22;27758;55.900;8.516;2023-07-13T08:29:50;20.40;99.90
42099;DHT22;27758;55.900;8.516;2023-07-13T08:32:16;20.10;99.90
42099;DHT22;27758;55.900;8.516;2023-07-13T08:34:42;20.10;99.90
42099;DHT22;27758;55.900;8.516;2023-07-13T08:37:08;20.20;99.90
42099;DHT22;27758;55.900;8.516;2023-07-13T08:39:35;20.40;99.90
42099;DHT22;27758;55.900;8.516;2023-07-13T08:42:11;20.30;99.90
42099;DHT22;27758;55.900;8.516;2023-07-13T08:47:47;20.00;99.90
42099;DHT22;27758;55.900;8.516;2023-07-13T08:50:17;20.30;99.90
42099;DHT22;27758;55.900;8.516;2023-07-13T08:52:44;20.60;99.90
42099;DHT22;27758;55.900;8.516;2023-07-13T08:55:21;21.00;99.90
42099;DHT22;27758;55.900;8.516;2023-07-13T08:57:53;21.20;99.90
42099;DHT22;27758;55.900;8.516;2023-07-13T09:00:20;21.90;99.90
42099;DHT22;27758;55.900;8.516;2023-07-13T09:02:55;22.10;99.90
42099;DHT22;27758;55.900;8.516;2023-07-13T09:05:33;22.20;99.90
42099;DHT22;27758;55.900;8.516;2023-07-13T09:10:32;21.50;99.90
42099;DHT22;27758;55.900;8.516;2023-07-13T09:15:39;20.80;99.90
42099;DHT22;27758;55.900;8.516;2023-07-13T09:21:02;21.00;99.90
42099;DHT22;27758;55.900;8.516;2023-07-13T09:23:29;21.10;99.90
42099;DHT22;27758;55.900;8.516;2023-07-13T09:26:06;21.30;99.90
42099;DHT22;27758;55.900;8.516;2023-07-13T09:28:41;21.00;99.90
42099;DHT22;27758;55.900;8.516;2023-07-13T09:31:13;20.60;99.90
42099;DHT22;27758;55.900;8.516;2023-07-13T09:33:39;20.90;99.90
42099;DHT22;27758;55.900;8.516;2023-07-13T09:38:45;21.10;99.90
42099;DHT22;27758;55.900;8.516;2023-07-13T09:41:29;21.60;99.90
42099;DHT22;27758;55.900;8.516;2023-07-13T09:44:14;21.80;99.90
42099;DHT22;27758;55.900;8.516;2023-07-13T09:46:46;22.10;99.90
42099;DHT22;27758;55.900;8.516;2023-07-13T09:49:12;22.60;99.90
42099;DHT22;27758;55.900;8.516;2023-07-13T09:51:41;22.90;99.90
42099;DHT22;27758;55.900;8.516;2023-07-13T09:54:21;22.70;99.90
42099;DHT22;27758;55.900;8.516;2023-07-13T09:56:57;22.30;99.90
42099;DHT22;27758;55.900;8.516;2023-07-13T09:59:27;21.80;99.90
42099;DHT22;27758;55.900;8.516;2023-07-13T10:01:54;21.40;99.90
42099;DHT22;27758;55.900;8.516;2023-07-13T10:04:26;21.00;99.90
42099;DHT22;27758;55.900;8.516;2023-07-13T10:07:08;20.90;99.90
42099;DHT22;27758;55.900;8.516;2023-07-13T10:09:35;20.90;99.90
42099;DHT22;27758;55.900;8.516;2023-07-13T10:12:00;21.10;99.90
42099;DHT22;27758;55.900;8.516;2023-07-13T10:14:27;21.40;99.90
42099;DHT22;27758;55.900;8.516;2023-07-13T10:17:00;21.80;99.90
42099;DHT22;27758;55.900;8.516;2023-07-13T10:19:31;22.10;99.90
42099;DHT22;27758;55.900;8.516;2023-07-13T10:24:33;21.50;99.90
42099;DHT22;27758;55.900;8.516;2023-07-13T10:29:38;21.70;99.90
42099;DHT22;27758;55.900;8.516;2023-07-13T10:32:14;21.60;99.90
42099;DHT22;27758;55.900;8.516;2023-07-13T10:34:43;21.30;99.90
42099;DHT22;27758;55.900;8.516;2023-07-13T10:37:19;21.10;99.90
42099;DHT22;27758;55.900;8.516;2023-07-13T10:39:47;20.70;99.90
42099;DHT22;27758;55.900;8.516;2023-07-13T10:42:21;20.40;99.90
42099;DHT22;27758;55.900;8.516;2023-07-13T10:44:50;20.30;99.90
42099;DHT22;27758;55.900;8.516;2023-07-13T10:47:16;20.20;99.90
42099;DHT22;27758;55.900;8.516;2023-07-13T10:49:44;20.20;99.90
42099;DHT22;27758;55.900;8.516;2023-07-13T10:53:02;20.20;99.90
42099;DHT22;27758;55.900;8.516;2023-07-13T10:55:38;20.10;99.90
42099;DHT22;27758;55.900;8.516;2023-07-13T10:58:13;20.00;99.90
42099;DHT22;27758;55.900;8.516;2023-07-13T11:03:23;20.00;99.90
42099;DHT22;27758;55.900;8.516;2023-07-13T11:08:37;20.40;99.90
42099;DHT22;27758;55.900;8.516;2023-07-13T11:24:29;22.50;99.90
42099;DHT22;27758;55.900;8.516;2023-07-13T11:27:36;22.60;99.90
42099;DHT22;27758;55.900;8.516;2023-07-13T11:30:31;22.60;99.90
42099;DHT22;27758;55.900;8.516;2023-07-13T11:38:21;22.20;99.90
42099;DHT22;27758;55.900;8.516;2023-07-13T11:40:50;22.10;99.90
42099;DHT22;27758;55.900;8.516;2023-07-13T11:43:16;22.10;99.90
42099;DHT22;27758;55.900;8.516;2023-07-13T11:45:43;21.90;99.90
42099;DHT22;27758;55.900;8.516;2023-07-13T11:48:23;21.60;99.90
42099;DHT22;27758;55.900;8.516;2023-07-13T11:50:52;21.30;99.90
42099;DHT22;27758;55.900;8.516;2023-07-13T11:53:18;21.60;99.90
42099;DHT22;27758;55.900;8.516;2023-07-13T11:55:44;21.80;99.90
42099;DHT22;27758;55.900;8.516;2023-07-13T11:58:23;22.20;99.90
42099;DHT22;27758;55.900;8.516;2023-07-13T12:00:51;22.40;99.90
42099;DHT22;27758;55.900;8.516;2023-07-13T12:03:21;22.10;99.90
42099;DHT22;27758;55.900;8.516;2023-07-13T12:06:02;21.80;99.90
42099;DHT22;27758;55.900;8.516;2023-07-13T12:08:29;21.30;99.90
42099;DHT22;27758;55.900;8.516;2023-07-13T12:11:14;21.00;99.90
42099;DHT22;27758;55.900;8.516;2023-07-13T12:13:40;21.20;99.90
42099;DHT22;27758;55.900;8.516;2023-07-13T12:16:21;21.30;99.90
42099;DHT22;27758;55.900;8.516;2023-07-13T12:18:48;21.60;99.90
42099;DHT22;27758;55.900;8.516;2023-07-13T12:21:17;21.90;99.90
42099;DHT22;27758;55.900;8.516;2023-07-13T12:23:47;22.30;99.90
42099;DHT22;27758;55.900;8.516;2023-07-13T12:26:15;22.80;99.90
42099;DHT22;27758;55.900;8.516;2023-07-13T12:28:52;23.10;99.90
42099;DHT22;27758;55.900;8.516;2023-07-13T12:31:36;23.30;99.90
42099;DHT22;27758;55.900;8.516;2023-07-13T12:37:00;22.90;99.90
42099;DHT22;27758;55.900;8.516;2023-07-13T12:39:38;23.10;99.90
42099;DHT22;27758;55.900;8.516;2023-07-13T12:42:25;23.20;99.90
42099;DHT22;27758;55.900;8.516;2023-07-13T12:47:23;22.40;99.90
42099;DHT22;27758;55.900;8.516;2023-07-13T12:50:00;22.40;99.90
42099;DHT22;27758;55.900;8.516;2023-07-13T12:52:35;22.40;99.90
42099;DHT22;27758;55.900;8.516;2023-07-13T12:55:27;22.40;99.90
42099;DHT22;27758;55.900;8.516;2023-07-13T12:57:59;22.30;99.90
42099;DHT22;27758;55.900;8.516;2023-07-13T13:00:33;22.50;99.90
42099;DHT22;27758;55.900;8.516;2023-07-13T13:03:28;22.50;99.90
42099;DHT22;27758;55.900;8.516;2023-07-13T13:05:57;22.40;99.90
42099;DHT22;27758;55.900;8.516;2023-07-13T13:08:25;22.00;99.90
42099;DHT22;27758;55.900;8.516;2023-07-13T13:10:50;22.00;99.90
42099;DHT22;27758;55.900;8.516;2023-07-13T13:13:16;21.90;99.90
42099;DHT22;27758;55.900;8.516;2023-07-13T13:15:42;22.00;99.90
42099;DHT22;27758;55.900;8.516;2023-07-13T13:18:18;22.10;99.90
42099;DHT22;27758;55.900;8.516;2023-07-13T13:20:44;21.90;99.90
42099;DHT22;27758;55.900;8.516;2023-07-13T13:23:17;21.90;99.90
42099;DHT22;27758;55.900;8.516;2023-07-13T13:25:49;21.90;99.90
42099;DHT22;27758;55.900;8.516;2023-07-13T13:28:20;21.70;99.90
42099;DHT22;27758;55.900;8.516;2023-07-13T13:30:48;21.70;99.90
42099;DHT22;27758;55.900;8.516;2023-07-13T13:33:16;21.80;99.90
42099;DHT22;27758;55.900;8.516;2023-07-13T13:35:43;21.80;99.90
42099;DHT22;27758;55.900;8.516;2023-07-13T13:38:29;21.70;99.90
42099;DHT22;27758;55.900;8.516;2023-07-13T13:40:55;21.80;99.90
42099;DHT22;27758;55.900;8.516;2023-07-13T13:43:26;21.80;99.90
42099;DHT22;27758;55.900;8.516;2023-07-13T13:45:58;21.50;99.90
42099;DHT22;27758;55.900;8.516;2023-07-13T13:48:33;21.30;99.90
42099;DHT22;27758;55.900;8.516;2023-07-13T13:50:59;21.20;99.90
42099;DHT22;27758;55.900;8.516;2023-07-13T13:53:26;21.30;99.90
42099;DHT22;27758;55.900;8.516;2023-07-13T13:55:52;21.30;99.90
42099;DHT22;27758;55.900;8.516;2023-07-13T13:58:21;21.40;99.90
42099;DHT22;27758;55.900;8.516;2023-07-13T14:00:47;21.50;99.90
42099;DHT22;27758;55.900;8.516;2023-07-13T14:03:18;21.50;99.90
42099;DHT22;27758;55.900;8.516;2023-07-13T14:05:46;21.60;99.90
42099;DHT22;27758;55.900;8.516;2023-07-13T14:08:16;21.80;99.90
42099;DHT22;27758;55.900;8.516;2023-07-13T14:10:44;21.70;99.90
42099;DHT22;27758;55.900;8.516;2023-07-13T14:13:21;21.50;99.90
42099;DHT22;27758;55.900;8.516;2023-07-13T14:15:48;21.80;99.90
42099;DHT22;27758;55.900;8.516;2023-07-13T14:18:14;21.80;99.90
42099;DHT22;27758;55.900;8.516;2023-07-13T14:20:44;21.70;99.90
42099;DHT22;27758;55.900;8.516;2023-07-13T14:23:13;21.50;99.90
42099;DHT22;27758;55.900;8.516;2023-07-13T14:25:38;21.50;99.90
42099;DHT22;27758;55.900;8.516;2023-07-13T14:28:23;21.40;99.90
42099;DHT22;27758;55.900;8.516;2023-07-13T14:30:50;21.30;99.90
42099;DHT22;27758;55.900;8.516;2023-07-13T14:33:16;21.40;99.90
42099;DHT22;27758;55.900;8.516;2023-07-13T14:35:42;21.60;99.90
42099;DHT22;27758;55.900;8.516;2023-07-13T14:38:14;21.50;99.90
42099;DHT22;27758;55.900;8.516;2023-07-13T14:40:41;21.50;99.90
42099;DHT22;27758;55.900;8.516;2023-07-13T14:43:10;21.40;99.90
42099;DHT22;27758;55.900;8.516;2023-07-13T14:45:40;21.30;99.90
42099;DHT22;27758;55.900;8.516;2023-07-13T14:48:17;21.10;99.90
42099;DHT22;27758;55.900;8.516;2023-07-13T14:50:44;21.10;99.90
42099;DHT22;27758;55.900;8.516;2023-07-13T14:53:12;21.10;99.90
42099;DHT22;27758;55.900;8.516;2023-07-13T14:55:39;21.10;99.90
42099;DHT22;27758;55.900;8.516;2023-07-13T14:58:05;21.20;99.90
42099;DHT22;27758;55.900;8.516;2023-07-13T15:00:31;21.30;99.90
42099;DHT22;27758;55.900;8.516;2023-07-13T15:02:58;21.40;99.90
42099;DHT22;27758;55.900;8.516;2023-07-13T15:05:29;21.30;99.90
42099;DHT22;27758;55.900;8.516;2023-07-13T15:08:01;21.20;99.90
42099;DHT22;27758;55.900;8.516;2023-07-13T15:10:29;21.20;99.90
42099;DHT22;27758;55.900;8.516;2023-07-13T15:13:01;21.00;99.90
42099;DHT22;27758;55.900;8.516;2023-07-13T15:15:32;21.00;99.90
42099;DHT22;27758;55.900;8.516;2023-07-13T15:17:59;20.90;99.90
42099;DHT22;27758;55.900;8.516;2023-07-13T15:20:34;20.60;99.90
42099;DHT22;27758;55.900;8.516;2023-07-13T15:23:03;20.70;99.90
42099;DHT22;27758;55.900;8.516;2023-07-13T15:25:32;20.60;99.90
42099;DHT22;27758;55.900;8.516;2023-07-13T15:27:59;20.40;99.90
42099;DHT22;27758;55.900;8.516;2023-07-13T15:30:28;20.40;99.90
42099;DHT22;27758;55.900;8.516;2023-07-13T15:33:00;20.40;99.90
42099;DHT22;27758;55.900;8.516;2023-07-13T15:35:28;20.60;99.90
42099;DHT22;27758;55.900;8.516;2023-07-13T15:37:53;20.60;99.90
42099;DHT22;27758;55.900;8.516;2023-07-13T15:40:20;20.50;99.90
42099;DHT22;27758;55.900;8.516;2023-07-13T15:42:49;20.40;99.90
42099;DHT22;27758;55.900;8.516;2023-07-13T15:45:22;20.30;99.90
42099;DHT22;27758;55.900;8.516;2023-07-13T15:47:51;20.30;99.90
42099;DHT22;27758;55.900;8.516;2023-07-13T15:50:22;20.40;99.90
42099;DHT22;27758;55.900;8.516;2023-07-13T15:52:51;20.50;99.90
42099;DHT22;27758;55.900;8.516;2023-07-13T15:55:17;20.60;99.90
42099;DHT22;27758;55.900;8.516;2023-07-13T15:57:51;20.60;99.90
42099;DHT22;27758;55.900;8.516;2023-07-13T16:00:21;20.70;99.90
42099;DHT22;27758;55.900;8.516;2023-07-13T16:02:49;20.70;99.90
42099;DHT22;27758;55.900;8.516;2023-07-13T16:05:16;20.60;99.90
42099;DHT22;27758;55.900;8.516;2023-07-13T16:07:46;20.40;99.90
42099;DHT22;27758;55.900;8.516;2023-07-13T16:10:22;20.50;99.90
42099;DHT22;27758;55.900;8.516;2023-07-13T16:12:50;20.50;99.90
42099;DHT22;27758;55.900;8.516;2023-07-13T16:15:18;20.40;99.90
42099;DHT22;27758;55.900;8.516;2023-07-13T16:17:45;20.20;99.90
42099;DHT22;27758;55.900;8.516;2023-07-13T16:20:12;20.10;99.90
42099;DHT22;27758;55.900;8.516;2023-07-13T16:22:41;20.10;99.90
42099;DHT22;27758;55.900;8.516;2023-07-13T16:25:16;20.00;99.90
42099;DHT22;27758;55.900;8.516;2023-07-13T16:27:47;19.90;99.90
42099;DHT22;27758;55.900;8.516;2023-07-13T16:32:44;19.60;99.90